Time;durP1;ratioP1;P1;durP2;ratioP2;P2;SDS_P1;SDS_P2;PMS_P1;PMS_P2;Temp;Humidity;BMP_temperature;BMP_pressure;BME280_temperature;BME280_humidity;BME280_pressure;Samples;Min_cycle;Max_cycle;Signal;HPM_P1;HPM_P2
2021/08/05 00:00:15;;;;;;;;;;;;;;;23.38;43.89;101239.97;5107116;28;19935;-62
2021/08/05 00:02:42;;;;;;;;;;;;;;;23.37;43.78;101244.47;5105618;27;19928;-62
2021/08/05 00:05:12;;;;;;;;;;;;;;;23.36;43.70;101242.78;5108788;28;19932;-62
2021/08/05 00:07:40;;;;;;;;;;;;;;;23.37;43.67;101240.94;5105059;28;20557;-61
2021/08/05 00:10:09;;;;;;;;;;;;;;;23.37;43.72;101249.03;5107826;28;19924;-62
2021/08/05 00:12:37;;;;;;;;;;;;;;;23.38;43.85;101259.72;5105831;28;20643;-62
2021/08/05 00:15:07;;;;;;;;;;;;;;;23.37;43.98;101249.03;5110313;28;19927;-62
2021/08/05 00:17:36;;;;;;;;;;;;;;;23.36;44.22;101250.88;5107490;28;19935;-62
2021/08/05 00:20:05;;;;;;;;;;;;;;;23.35;44.02;101249.16;5112689;28;19966;-60
2021/08/05 00:22:33;;;;;;;;;;;;;;;23.36;43.98;101247.31;5108516;28;19929;-62
2021/08/05 00:25:02;;;;;;;;;;;;;;;23.35;44.07;101246.44;5114040;28;20346;-62
2021/08/05 00:27:30;;;;;;;;;;;;;;;23.37;44.16;101251.72;5107704;28;19947;-62
2021/08/05 00:29:58;;;;;;;;;;;;;;;23.37;44.66;101254.44;5105100;28;19978;-62
2021/08/05 00:32:28;;;;;;;;;;;;;;;23.35;44.45;101242.88;5107915;28;19932;-62
2021/08/05 00:34:56;;;;;;;;;;;;;;;23.34;44.67;101247.41;5106003;27;19938;-61
2021/08/05 00:37:24;;;;;;;;;;;;;;;23.35;44.40;101242.88;5103863;28;20009;-61
2021/08/05 00:39:52;;;;;;;;;;;;;;;23.34;44.44;101241.19;5106559;28;20004;-61
2021/08/05 00:42:21;;;;;;;;;;;;;;;23.34;44.44;101246.56;5105940;28;19931;-62
2021/08/05 00:44:49;;;;;;;;;;;;;;;23.34;44.48;101244.72;5107738;28;19928;-61
2021/08/05 00:47:17;;;;;;;;;;;;;;;23.33;44.95;101245.69;5106071;28;19995;-62
2021/08/05 00:49:46;;;;;;;;;;;;;;;23.33;44.35;101242.16;5106319;28;19924;-62
2021/08/05 00:52:15;;;;;;;;;;;;;;;23.31;44.18;101236.88;5103788;28;19928;-62
2021/08/05 00:54:43;;;;;;;;;;;;;;;23.30;44.12;101236.97;5108958;28;19943;-61
2021/08/05 00:57:11;;;;;;;;;;;;;;;23.29;44.20;101236.09;5104766;28;19932;-62
2021/08/05 00:59:39;;;;;;;;;;;;;;;23.31;44.27;101238.69;5105816;28;20403;-62
2021/08/05 01:02:11;;;;;;;;;;;;;;;23.31;44.47;101236.88;5105040;28;19974;-62
2021/08/05 01:04:40;;;;;;;;;;;;;;;23.30;44.48;101229.72;5105861;28;19951;-62
2021/08/05 01:07:14;;;;;;;;;;;;;;;23.30;44.68;101240.53;5102019;28;19928;-61
2021/08/05 01:09:48;;;;;;;;;;;;;;;23.29;44.42;101232.56;5105089;28;19982;-61
2021/08/05 01:12:19;;;;;;;;;;;;;;;23.28;44.17;101228.97;5107352;28;19928;-60
2021/08/05 01:14:51;;;;;;;;;;;;;;;23.26;44.02;101225.53;5137800;27;19932;-61
2021/08/05 01:17:22;;;;;;;;;;;;;;;23.28;44.22;101225.44;5105781;28;19980;-61
2021/08/05 01:19:53;;;;;;;;;;;;;;;23.27;44.66;101224.56;5104422;28;19931;-62
2021/08/05 01:22:30;;;;;;;;;;;;;;;23.28;44.42;101231.66;5108116;28;19959;-61
2021/08/05 01:25:00;;;;;;;;;;;;;;;23.27;44.47;101221.88;5111627;27;19931;-61
2021/08/05 01:27:30;;;;;;;;;;;;;;;23.26;44.09;101222.84;5107013;27;20831;-61
2021/08/05 01:29:59;;;;;;;;;;;;;;;23.24;43.93;101216.69;5110628;27;19966;-61
2021/08/05 01:32:27;;;;;;;;;;;;;;;23.24;43.95;101213.13;5106646;27;19935;-61
2021/08/05 01:34:56;;;;;;;;;;;;;;;23.27;44.37;101221.00;5106163;27;19990;-61
2021/08/05 01:37:24;;;;;;;;;;;;;;;23.25;44.18;101217.56;5103818;28;19996;-61
2021/08/05 01:39:54;;;;;;;;;;;;;;;23.24;44.50;101223.94;5106987;27;19997;-61
2021/08/05 01:42:22;;;;;;;;;;;;;;;23.24;44.54;101213.97;5107304;27;19996;-61
2021/08/05 01:44:52;;;;;;;;;;;;;;;23.24;44.17;101223.94;5106333;28;19924;-61
2021/08/05 01:47:21;;;;;;;;;;;;;;;23.20;43.91;101226.84;5104985;28;19928;-61
2021/08/05 01:49:51;;;;;;;;;;;;;;;23.22;44.05;101221.34;5105814;28;20324;-62
2021/08/05 01:52:19;;;;;;;;;;;;;;;23.23;43.91;101225.75;5103412;28;19967;-62
2021/08/05 01:54:48;;;;;;;;;;;;;;;23.20;44.23;101218.75;5108527;27;20421;-61
2021/08/05 01:57:16;;;;;;;;;;;;;;;23.19;44.42;101222.44;5106950;27;19989;-62
2021/08/05 01:59:45;;;;;;;;;;;;;;;23.20;44.30;101221.44;5106224;28;19932;-62
2021/08/05 02:02:14;;;;;;;;;;;;;;;23.20;44.31;101220.59;5115847;27;20376;-62
2021/08/05 02:04:48;;;;;;;;;;;;;;;23.18;44.08;101209.91;5109979;27;20129;-62
2021/08/05 02:07:20;;;;;;;;;;;;;;;23.19;44.42;101210.75;5139238;27;19988;-61
2021/08/05 02:09:54;;;;;;;;;;;;;;;23.20;44.51;101212.50;5108276;27;20033;-62
2021/08/05 02:12:23;;;;;;;;;;;;;;;23.20;44.57;101207.94;5107620;27;19977;-61
2021/08/05 02:14:53;;;;;;;;;;;;;;;23.18;44.59;101209.91;5136103;27;20008;-62
2021/08/05 02:17:23;;;;;;;;;;;;;;;23.17;44.22;101215.44;5107909;27;20474;-62
2021/08/05 02:19:51;;;;;;;;;;;;;;;23.17;43.97;101213.56;5113819;27;19923;-62
2021/08/05 02:22:19;;;;;;;;;;;;;;;23.17;44.20;101205.47;5111178;27;19924;-62
2021/08/05 02:24:49;;;;;;;;;;;;;;;23.18;44.15;101209.06;5108919;27;20005;-62
2021/08/05 02:27:17;;;;;;;;;;;;;;;23.17;44.37;101210.88;5108530;27;19931;-61
2021/08/05 02:29:46;;;;;;;;;;;;;;;23.19;44.74;101208.94;5108594;27;19988;-61
2021/08/05 02:32:14;;;;;;;;;;;;;;;23.15;44.43;101202.06;5110638;27;19985;-62
2021/08/05 02:34:45;;;;;;;;;;;;;;;23.15;44.29;101206.56;5111546;27;19932;-62
2021/08/05 02:37:14;;;;;;;;;;;;;;;23.14;44.20;101202.13;5103947;27;20059;-61
2021/08/05 02:39:42;;;;;;;;;;;;;;;23.14;44.18;101205.72;5109507;27;19959;-61
2021/08/05 02:42:10;;;;;;;;;;;;;;;23.14;44.27;101205.72;5106819;27;19935;-62
2021/08/05 02:44:39;;;;;;;;;;;;;;;23.15;44.59;101198.47;5107660;27;19939;-61
2021/08/05 02:47:08;;;;;;;;;;;;;;;23.14;44.53;101199.44;5108007;27;20384;-61
2021/08/05 02:49:36;;;;;;;;;;;;;;;23.13;44.41;101203.09;5108127;27;19954;-62
2021/08/05 02:52:07;;;;;;;;;;;;;;;23.12;44.38;101191.44;5119205;27;19928;-62
2021/08/05 02:54:36;;;;;;;;;;;;;;;23.09;43.98;101194.38;5107991;27;19978;-61
2021/08/05 02:57:04;;;;;;;;;;;;;;;23.11;44.36;101194.25;5104261;27;19947;-61
2021/08/05 02:59:32;;;;;;;;;;;;;;;23.12;44.83;101195.97;5108858;27;19935;-61
2021/08/05 03:02:02;;;;;;;;;;;;;;;23.11;44.42;101197.78;5109265;27;19963;-62
2021/08/05 03:04:31;;;;;;;;;;;;;;;23.10;44.47;101195.22;5104912;27;20011;-62
2021/08/05 03:07:00;;;;;;;;;;;;;;;23.09;44.06;101198.88;5110072;27;19954;-61
2021/08/05 03:09:29;;;;;;;;;;;;;;;23.08;44.22;101184.53;5105414;27;19924;-61
2021/08/05 03:11:57;;;;;;;;;;;;;;;23.08;44.54;101181.84;5108784;27;19932;-62
2021/08/05 03:14:25;;;;;;;;;;;;;;;23.08;44.53;101179.16;5112676;27;19992;-61
2021/08/05 03:16:53;;;;;;;;;;;;;;;23.09;44.81;101178.19;5109184;27;19949;-61
2021/08/05 03:19:21;;;;;;;;;;;;;;;23.08;44.75;101181.84;5103581;27;19955;-61
2021/08/05 03:21:49;;;;;;;;;;;;;;;23.07;44.58;101179.25;5105972;27;19932;-61
2021/08/05 03:24:17;;;;;;;;;;;;;;;23.06;44.34;101175.72;5108753;27;19928;-61
2021/08/05 03:26:46;;;;;;;;;;;;;;;23.05;44.27;101168.59;5104351;27;19932;-62
2021/08/05 03:29:14;;;;;;;;;;;;;;;23.09;44.16;101169.19;5106679;27;19924;-61
2021/08/05 03:31:42;;;;;;;;;;;;;;;23.07;44.42;101163.94;5109588;27;19932;-61
2021/08/05 03:34:10;;;;;;;;;;;;;;;23.08;44.36;101172.91;5109293;27;20007;-61
2021/08/05 03:36:38;;;;;;;;;;;;;;;23.06;44.71;101164.94;5107227;27;20068;-61
2021/08/05 03:39:06;;;;;;;;;;;;;;;23.06;44.63;101173.03;5105727;27;19927;-61
2021/08/05 03:41:34;;;;;;;;;;;;;;;23.05;44.47;101171.28;5102822;28;19938;-62
2021/08/05 03:44:04;;;;;;;;;;;;;;;23.05;44.22;101182.09;5113871;27;19934;-61
2021/08/05 03:46:32;;;;;;;;;;;;;;;23.04;44.08;101175.81;5106782;27;19969;-62
2021/08/05 03:49:00;;;;;;;;;;;;;;;23.04;44.27;101173.09;5107366;27;19935;-61
2021/08/05 03:51:28;;;;;;;;;;;;;;;23.04;44.83;101170.41;5108557;27;19977;-62
2021/08/05 03:53:57;;;;;;;;;;;;;;;23.04;44.76;101161.47;5106059;28;19936;-62
2021/08/05 03:56:25;;;;;;;;;;;;;;;23.04;44.59;101164.16;5105309;28;19931;-62
2021/08/05 03:58:53;;;;;;;;;;;;;;;23.04;44.27;101158.75;5107401;27;19928;-62
2021/08/05 04:01:23;;;;;;;;;;;;;;;23.04;44.49;101158.75;5100847;28;19973;-62
2021/08/05 04:03:51;;;;;;;;;;;;;;;23.02;44.56;101158.88;5102628;28;20023;-62
2021/08/05 04:06:19;;;;;;;;;;;;;;;23.03;44.73;101163.31;5105110;28;19978;-62
2021/08/05 04:08:47;;;;;;;;;;;;;;;23.01;44.71;101159.84;5104399;28;19928;-62
2021/08/05 04:11:15;;;;;;;;;;;;;;;23.00;44.64;101163.53;5104609;28;19966;-61
2021/08/05 04:13:45;;;;;;;;;;;;;;;23.02;44.54;101163.41;5106567;28;19958;-62
2021/08/05 04:16:13;;;;;;;;;;;;;;;23.01;44.51;101159.84;5104379;28;19938;-61
2021/08/05 04:18:43;;;;;;;;;;;;;;;23.01;44.58;101157.16;5101630;28;19928;-61
2021/08/05 04:21:11;;;;;;;;;;;;;;;23.00;44.70;101154.56;5104618;28;19971;-62
2021/08/05 04:23:38;;;;;;;;;;;;;;;23.01;44.80;101159.00;5106783;28;19928;-62
2021/08/05 04:26:06;;;;;;;;;;;;;;;23.00;44.85;101155.44;5105196;28;20151;-62
2021/08/05 04:28:34;;;;;;;;;;;;;;;22.99;44.60;101156.41;5107640;28;20353;-61
2021/08/05 04:31:02;;;;;;;;;;;;;;;22.99;44.57;101159.09;5102394;28;20021;-62
2021/08/05 04:33:30;;;;;;;;;;;;;;;23.00;44.86;101159.97;5103499;28;19985;-62
2021/08/05 04:36:00;;;;;;;;;;;;;;;22.99;44.62;101160.94;5100638;28;20001;-62
2021/08/05 04:38:28;;;;;;;;;;;;;;;23.01;45.35;101148.22;5105017;28;19950;-61
2021/08/05 04:40:56;;;;;;;;;;;;;;;22.98;45.11;101152.00;5103184;28;19970;-62
2021/08/05 04:43:24;;;;;;;;;;;;;;;22.97;44.78;101152.09;5104918;28;19938;-61
2021/08/05 04:45:53;;;;;;;;;;;;;;;22.98;44.77;101156.50;5109397;28;20014;-61
2021/08/05 04:48:21;;;;;;;;;;;;;;;22.98;44.47;101152.00;5108238;28;19934;-62
2021/08/05 04:50:49;;;;;;;;;;;;;;;23.00;44.93;101157.28;5105419;28;19928;-62
2021/08/05 04:53:19;;;;;;;;;;;;;;;23.00;44.86;101157.28;5109168;28;19932;-62
2021/08/05 04:55:47;;;;;;;;;;;;;;;22.98;45.14;101156.50;5107615;27;19935;-62
2021/08/05 04:58:15;;;;;;;;;;;;;;;22.97;44.67;101160.19;5105007;27;20011;-61
2021/08/05 05:00:43;;;;;;;;;;;;;;;22.99;43.93;101156.41;5110642;27;19942;-58
2021/08/05 05:03:12;;;;;;;;;;;;;;;23.03;43.46;101151.66;5110171;27;20523;-59
2021/08/05 05:05:40;;;;;;;;;;;;;;;23.04;44.40;101150.69;5109498;27;19942;-58
2021/08/05 05:08:12;;;;;;;;;;;;;;;23.03;44.09;101155.22;5110382;27;19932;-59
2021/08/05 05:10:42;;;;;;;;;;;;;;;23.02;44.18;101160.69;5105457;27;19924;-59
2021/08/05 05:13:10;;;;;;;;;;;;;;;23.01;44.55;101161.69;5106324;27;19939;-57
2021/08/05 05:15:38;;;;;;;;;;;;;;;23.00;44.99;101162.66;5110334;27;19996;-58
2021/08/05 05:18:07;;;;;;;;;;;;;;;23.00;44.43;101162.66;5112802;27;19924;-58
2021/08/05 05:20:35;;;;;;;;;;;;;;;23.01;44.09;101162.56;5110951;27;19966;-59
2021/08/05 05:23:04;;;;;;;;;;;;;;;23.02;44.08;101158.00;5106312;27;19939;-58
2021/08/05 05:25:32;;;;;;;;;;;;;;;23.02;44.70;101164.28;5111863;27;19978;-58
2021/08/05 05:28:02;;;;;;;;;;;;;;;20.52;52.74;101165.81;5109376;27;19931;-58
2021/08/05 05:30:30;;;;;;;;;;;;;;;20.02;53.95;101170.66;5105742;27;19935;-58
2021/08/05 05:32:58;;;;;;;;;;;;;;;19.66;50.52;101169.19;5104187;27;19996;-58
2021/08/05 05:35:27;;;;;;;;;;;;;;;19.72;48.05;101167.97;5107183;28;19935;-58
2021/08/05 05:37:55;;;;;;;;;;;;;;;20.22;44.92;101171.28;5110571;27;19927;-58
2021/08/05 05:40:24;;;;;;;;;;;;;;;20.22;44.80;101169.47;5107550;27;20375;-58
2021/08/05 05:42:53;;;;;;;;;;;;;;;20.27;45.25;101162.94;5108572;28;20549;-58
2021/08/05 05:45:22;;;;;;;;;;;;;;;20.39;46.46;101165.75;5113604;27;19928;-58
2021/08/05 05:47:51;;;;;;;;;;;;;;;20.47;46.77;101167.06;5107525;27;19939;-58
2021/08/05 05:50:20;;;;;;;;;;;;;;;20.54;46.00;101165.75;5112321;27;19967;-58
2021/08/05 05:52:48;;;;;;;;;;;;;;;20.55;44.08;101162.06;5109137;27;19938;-57
2021/08/05 05:55:17;;;;;;;;;;;;;;;20.36;43.21;101165.91;5112149;27;19950;-58
2021/08/05 05:57:45;;;;;;;;;;;;;;;19.82;43.42;101168.34;5113178;27;19969;-58
2021/08/05 06:00:13;;;;;;;;;;;;;;;19.64;43.62;101168.41;5107902;27;19969;-58
2021/08/05 06:02:43;;;;;;;;;;;;;;;20.03;45.70;101172.41;5110593;27;19955;-58
2021/08/05 06:05:12;;;;;;;;;;;;;;;20.30;45.33;101173.50;5107472;27;19928;-57
2021/08/05 06:07:43;;;;;;;;;;;;;;;20.39;45.40;101165.75;5106226;27;21253;-57
2021/08/05 06:10:13;;;;;;;;;;;;;;;20.40;45.46;101166.59;5110405;27;20011;-58
2021/08/05 06:12:41;;;;;;;;;;;;;;;20.20;44.02;101170.53;5109417;27;19935;-58
2021/08/05 06:15:10;;;;;;;;;;;;;;;20.01;43.12;101178.81;5109199;27;19934;-58
2021/08/05 06:17:39;;;;;;;;;;;;;;;19.64;43.33;101176.47;5110392;27;20071;-58
2021/08/05 06:20:10;;;;;;;;;;;;;;;19.40;43.41;101179.63;5111355;27;20002;-58
2021/08/05 06:22:39;;;;;;;;;;;;;;;19.80;44.96;101184.47;5110017;27;19931;-58
2021/08/05 06:25:08;;;;;;;;;;;;;;;19.86;43.10;101185.97;5105132;28;19936;-58
2021/08/05 06:27:36;;;;;;;;;;;;;;;19.63;42.67;101185.47;5106382;27;19928;-58
2021/08/05 06:30:05;;;;;;;;;;;;;;;19.50;42.38;101182.66;5110954;27;19947;-58
2021/08/05 06:32:33;;;;;;;;;;;;;;;19.68;43.47;101174.47;5107056;28;19964;-58
2021/08/05 06:35:01;;;;;;;;;;;;;;;20.04;44.15;101182.19;5109609;28;19935;-58
2021/08/05 06:37:32;;;;;;;;;;;;;;;20.14;44.24;101187.84;5106544;28;19946;-58
2021/08/05 06:40:00;;;;;;;;;;;;;;;20.12;44.52;101191.59;5110599;28;19924;-56
2021/08/05 06:42:28;;;;;;;;;;;;;;;20.03;44.57;101187.66;5102486;28;19928;-58
2021/08/05 06:44:56;;;;;;;;;;;;;;;19.81;43.69;101185.34;5107287;28;19924;-58
2021/08/05 06:47:24;;;;;;;;;;;;;;;19.82;43.34;101189.81;5108443;28;20347;-57
2021/08/05 06:49:52;;;;;;;;;;;;;;;19.77;43.05;101191.88;5105689;28;19946;-57
2021/08/05 06:52:20;;;;;;;;;;;;;;;19.73;42.91;101186.66;5109347;27;19924;-58
2021/08/05 06:54:49;;;;;;;;;;;;;;;19.86;44.42;101188.66;5111077;27;19984;-60
2021/08/05 06:57:17;;;;;;;;;;;;;;;20.03;45.06;101184.97;5115135;27;19943;-61
2021/08/05 06:59:45;;;;;;;;;;;;;;;20.05;44.93;101183.94;5116951;28;20352;-60
2021/08/05 07:02:13;;;;;;;;;;;;;;;20.17;44.92;101181.44;5103461;28;19924;-60
2021/08/05 07:04:41;;;;;;;;;;;;;;;19.94;43.49;101182.84;5103928;28;19932;-60
2021/08/05 07:07:09;;;;;;;;;;;;;;;19.81;43.32;101175.50;5104150;28;20467;-59
2021/08/05 07:09:37;;;;;;;;;;;;;;;19.76;42.81;101179.41;5102222;28;19992;-60
2021/08/05 07:12:06;;;;;;;;;;;;;;;19.81;43.24;101174.63;5102025;27;19978;-60
2021/08/05 07:14:34;;;;;;;;;;;;;;;19.90;44.45;101174.09;5104132;27;19928;-60
2021/08/05 07:17:02;;;;;;;;;;;;;;;20.05;44.31;101177.66;5106984;27;19928;-60
2021/08/05 07:19:31;;;;;;;;;;;;;;;20.03;43.43;101176.91;5108589;27;20077;-60
2021/08/05 07:21:59;;;;;;;;;;;;;;;19.74;43.30;101169.59;5108266;27;19935;-60
2021/08/05 07:24:27;;;;;;;;;;;;;;;19.72;42.67;101171.53;5102937;27;19928;-60
2021/08/05 07:26:55;;;;;;;;;;;;;;;19.75;42.35;101170.47;5103859;28;20068;-60
2021/08/05 07:29:24;;;;;;;;;;;;;;;19.74;42.38;101174.13;5104638;28;19928;-60
2021/08/05 07:31:52;;;;;;;;;;;;;;;19.70;44.38;101168.06;5102253;28;20120;-60
2021/08/05 07:34:20;;;;;;;;;;;;;;;19.83;44.78;101168.25;5107366;28;20180;-60
2021/08/05 07:36:48;;;;;;;;;;;;;;;19.92;44.46;101171.31;5103379;28;20050;-60
2021/08/05 07:39:16;;;;;;;;;;;;;;;19.81;42.50;101164.75;5109579;28;19970;-60
2021/08/05 07:41:44;;;;;;;;;;;;;;;19.82;42.45;101162.97;5106131;28;20434;-60
2021/08/05 07:44:12;;;;;;;;;;;;;;;19.67;42.03;101162.88;5108481;28;20008;-61
2021/08/05 07:46:43;;;;;;;;;;;;;;;19.71;42.06;101159.06;5108582;27;20053;-60
2021/08/05 07:49:13;;;;;;;;;;;;;;;19.71;41.70;101159.06;5105121;28;20224;-60
2021/08/05 07:51:44;;;;;;;;;;;;;;;19.66;43.58;101160.28;5102381;28;19928;-60
2021/08/05 07:54:12;;;;;;;;;;;;;;;19.86;43.87;101160.00;5104627;27;19924;-60
2021/08/05 07:56:40;;;;;;;;;;;;;;;19.73;42.15;101156.28;5103789;28;20072;-60
2021/08/05 07:59:09;;;;;;;;;;;;;;;19.67;41.65;101157.53;5104675;28;19939;-58
2021/08/05 08:01:38;;;;;;;;;;;;;;;19.71;41.93;101150.13;5103968;28;19928;-60
2021/08/05 08:04:08;;;;;;;;;;;;;;;19.69;41.30;101147.53;5106062;28;19981;-59
2021/08/05 08:06:36;;;;;;;;;;;;;;;19.67;43.21;101148.59;5103029;28;19942;-59
2021/08/05 08:09:04;;;;;;;;;;;;;;;19.68;44.23;101156.53;5103695;28;19955;-59
2021/08/05 08:11:32;;;;;;;;;;;;;;;19.66;42.39;101153.09;5105277;28;19927;-58
2021/08/05 08:14:00;;;;;;;;;;;;;;;19.76;41.54;101149.88;5104548;28;19928;-59
2021/08/05 08:16:28;;;;;;;;;;;;;;;19.74;41.64;101145.44;5107644;28;19934;-59
2021/08/05 08:18:56;;;;;;;;;;;;;;;19.81;40.99;101148.66;5111709;28;19932;-59
2021/08/05 08:21:26;;;;;;;;;;;;;;;19.81;40.67;101143.28;5105547;28;19927;-59
2021/08/05 08:23:54;;;;;;;;;;;;;;;19.82;43.02;101147.72;5108168;28;19928;-59
2021/08/05 08:26:22;;;;;;;;;;;;;;;19.69;44.04;101150.22;5107043;28;19932;-59
2021/08/05 08:28:51;;;;;;;;;;;;;;;19.94;41.32;101143.41;5101868;28;19932;-59
2021/08/05 08:31:19;;;;;;;;;;;;;;;19.81;41.39;101147.78;5110531;27;19932;-59
2021/08/05 08:33:47;;;;;;;;;;;;;;;19.72;41.59;101143.81;5113018;27;20645;-59
2021/08/05 08:36:15;;;;;;;;;;;;;;;19.81;40.89;101148.66;5111033;27;19923;-59
2021/08/05 08:38:45;;;;;;;;;;;;;;;19.68;42.45;101147.63;5112398;27;19927;-59
2021/08/05 08:41:13;;;;;;;;;;;;;;;19.67;43.76;101141.41;5112186;27;19927;-57
2021/08/05 08:43:41;;;;;;;;;;;;;;;19.79;43.99;101139.81;5109158;28;19982;-59
2021/08/05 08:46:10;;;;;;;;;;;;;;;19.76;42.04;101129.25;5111059;27;19932;-59
2021/08/05 08:48:41;;;;;;;;;;;;;;;19.71;41.24;101129.53;5112252;28;20337;-59
2021/08/05 08:51:09;;;;;;;;;;;;;;;19.70;41.70;101132.31;5108913;27;19928;-60
2021/08/05 08:53:39;;;;;;;;;;;;;;;19.73;41.34;101137.50;5111839;27;19924;-59
2021/08/05 08:56:08;;;;;;;;;;;;;;;19.64;41.37;101138.91;5108341;27;19927;-59
2021/08/05 08:58:38;;;;;;;;;;;;;;;19.72;43.86;101135.75;5110863;28;19923;-60
2021/08/05 09:01:06;;;;;;;;;;;;;;;20.71;42.54;101121.66;5122520;28;19923;-60
2021/08/05 09:03:34;;;;;;;;;;;;;;;21.26;44.74;101119.03;5112634;27;19927;-60
2021/08/05 09:06:02;;;;;;;;;;;;;;;21.69;43.27;101121.53;5119247;27;19928;-59
2021/08/05 09:08:30;;;;;;;;;;;;;;;21.99;43.16;101115.00;5112711;27;19934;-60
2021/08/05 09:10:58;;;;;;;;;;;;;;;22.20;42.70;101116.19;5111258;27;19964;-60
2021/08/05 09:13:29;;;;;;;;;;;;;;;22.39;42.57;101109.50;5109748;28;19977;-59
2021/08/05 09:15:57;;;;;;;;;;;;;;;22.51;43.22;101116.72;5109356;28;20536;-60
2021/08/05 09:18:27;;;;;;;;;;;;;;;22.65;42.44;101115.72;5108708;27;19928;-60
2021/08/05 09:21:05;;;;;;;;;;;;;;;22.74;42.44;101111.50;5114935;27;19928;-59
2021/08/05 09:23:45;;;;;;;;;;;;;;;22.85;42.66;101113.41;5115383;27;19930;-60
2021/08/05 09:26:22;;;;;;;;;;;;;;;22.94;42.94;101115.41;5113436;27;20016;-60
2021/08/05 09:29:00;;;;;;;;;;;;;;;23.04;43.19;101121.00;5110546;27;19929;-60
2021/08/05 09:31:29;;;;;;;;;;;;;;;22.94;44.45;101114.56;5111814;27;20013;-60
2021/08/05 09:34:00;;;;;;;;;;;;;;;22.98;43.88;101107.97;5113706;27;19928;-61
2021/08/05 09:36:29;;;;;;;;;;;;;;;23.17;43.46;101110.19;5113144;27;19931;-60
2021/08/05 09:38:57;;;;;;;;;;;;;;;23.29;43.84;101105.69;5119542;27;19935;-60
2021/08/05 09:41:25;;;;;;;;;;;;;;;23.37;43.27;101109.53;5110803;27;19991;-60
2021/08/05 09:44:02;;;;;;;;;;;;;;;23.45;43.30;101100.84;5113784;27;19950;-60
2021/08/05 09:46:32;;;;;;;;;;;;;;;23.52;43.03;101101.22;5116674;27;19928;-60
2021/08/05 09:49:00;;;;;;;;;;;;;;;23.59;43.38;101102.50;5112483;27;19923;-60
2021/08/05 09:51:28;;;;;;;;;;;;;;;23.64;43.47;101105.72;5112614;27;19935;-60
2021/08/05 09:53:57;;;;;;;;;;;;;;;23.59;43.30;101098.94;5112292;27;19927;-58
2021/08/05 09:56:25;;;;;;;;;;;;;;;23.47;43.71;101095.34;5102773;28;20014;-58
2021/08/05 09:59:03;;;;;;;;;;;;;;;23.42;44.43;101103.78;5107899;27;20081;-58
2021/08/05 10:01:33;;;;;;;;;;;;;;;23.41;44.48;101103.91;5115039;28;19931;-59
2021/08/05 10:04:17;;;;;;;;;;;;;;;23.38;44.96;101089.66;5104798;28;19924;-58
2021/08/05 10:06:55;;;;;;;;;;;;;;;23.41;45.34;101088.56;5110304;27;19928;-58
2021/08/05 10:09:24;;;;;;;;;;;;;;;23.41;45.06;101087.72;5105636;27;19932;-58
2021/08/05 10:11:52;;;;;;;;;;;;;;;23.22;46.20;101086.41;5106508;27;19931;-57
2021/08/05 10:14:21;;;;;;;;;;;;;;;23.18;46.48;101087.63;5111469;27;19931;-59
2021/08/05 10:16:54;;;;;;;;;;;;;;;23.37;46.20;101092.47;5111977;27;19995;-59
2021/08/05 10:19:23;;;;;;;;;;;;;;;23.43;45.77;101092.03;5107730;28;19924;-59
2021/08/05 10:21:51;;;;;;;;;;;;;;;23.49;46.27;101090.69;5105485;27;19968;-59
2021/08/05 10:24:20;;;;;;;;;;;;;;;23.52;45.97;101087.72;5108169;27;20684;-59
2021/08/05 10:26:48;;;;;;;;;;;;;;;23.56;45.94;101085.66;5115538;27;19935;-59
2021/08/05 10:29:16;;;;;;;;;;;;;;;23.54;46.00;101088.50;5109189;27;19939;-59
2021/08/05 10:31:45;;;;;;;;;;;;;;;23.40;46.70;101080.59;5105754;27;19928;-59
2021/08/05 10:34:15;;;;;;;;;;;;;;;23.51;46.29;101096.84;5111513;27;19927;-58
2021/08/05 10:36:43;;;;;;;;;;;;;;;23.53;46.66;101087.66;5107605;27;20387;-58
2021/08/05 10:39:11;;;;;;;;;;;;;;;23.61;46.55;101084.34;5106436;27;19930;-58
2021/08/05 10:41:39;;;;;;;;;;;;;;;23.66;46.63;101087.53;5109718;27;20035;-58
2021/08/05 10:44:08;;;;;;;;;;;;;;;23.68;46.41;101088.28;5107449;27;19928;-58
2021/08/05 10:46:37;;;;;;;;;;;;;;;23.73;46.43;101081.66;5111279;27;19990;-58
2021/08/05 10:49:05;;;;;;;;;;;;;;;23.77;46.73;101083.13;5107891;27;20014;-59
2021/08/05 10:51:35;;;;;;;;;;;;;;;23.77;46.29;101081.31;5105554;27;20394;-58
2021/08/05 10:54:04;;;;;;;;;;;;;;;23.82;46.92;101075.53;5108233;27;19928;-58
2021/08/05 10:56:32;;;;;;;;;;;;;;;23.54;47.58;101072.28;5110539;27;19931;-58
2021/08/05 10:59:10;;;;;;;;;;;;;;;23.43;48.24;101069.53;5108332;27;19935;-59
2021/08/05 11:01:45;;;;;;;;;;;;;;;23.41;48.33;101074.22;5109157;27;19928;-58
2021/08/05 11:04:32;;;;;;;;;;;;;;;23.71;47.54;101065.59;5111256;27;19942;-59
2021/08/05 11:07:23;;;;;;;;;;;;;;;23.71;47.56;101066.44;5107301;27;19938;-57
2021/08/05 11:09:52;;;;;;;;;;;;;;;23.63;48.06;101054.53;5108311;27;19924;-59
2021/08/05 11:12:38;;;;;;;;;;;;;;;23.53;47.92;101057.06;5103453;27;19924;-58
2021/08/05 11:15:39;;;;;;;;;;;;;;;23.74;47.91;101049.13;5106752;28;19932;-59
2021/08/05 11:18:17;;;;;;;;;;;;;;;23.92;46.92;101041.44;5105349;27;19932;-59
2021/08/05 11:20:46;;;;;;;;;;;;;;;23.99;46.89;101042.69;5107863;28;19970;-60
2021/08/05 11:23:34;;;;;;;;;;;;;;;24.03;47.04;101037.88;5108095;27;19947;-59
2021/08/05 11:26:05;;;;;;;;;;;;;;;23.82;47.54;101037.72;5100004;27;19932;-60
2021/08/05 11:28:34;;;;;;;;;;;;;;;23.69;47.91;101043.22;5107355;27;19938;-59
2021/08/05 11:31:02;;;;;;;;;;;;;;;23.62;48.50;101040.16;5104312;27;19950;-59
2021/08/05 11:33:51;;;;;;;;;;;;;;;23.59;48.37;101035.00;5106652;27;19932;-59
2021/08/05 11:36:24;;;;;;;;;;;;;;;23.82;48.09;101027.78;5101194;27;19934;-59
2021/08/05 11:38:56;;;;;;;;;;;;;;;23.77;48.63;101023.72;5106472;27;19936;-59
2021/08/05 11:41:46;;;;;;;;;;;;;;;23.72;48.22;101021.41;5105671;28;19924;-59
2021/08/05 11:44:17;;;;;;;;;;;;;;;24.02;47.47;101018.13;5103534;28;20027;-60
2021/08/05 11:46:48;;;;;;;;;;;;;;;24.13;47.22;101013.72;5103206;27;20026;-59
2021/08/05 11:49:31;;;;;;;;;;;;;;;23.93;47.48;101016.16;5102193;28;19938;-60
2021/08/05 11:52:00;;;;;;;;;;;;;;;23.79;48.38;101014.50;5103053;27;19991;-60
2021/08/05 11:54:27;;;;;;;;;;;;;;;23.81;48.38;101028.78;5102046;27;19927;-59
2021/08/05 11:57:00;;;;;;;;;;;;;;;23.78;48.39;101023.59;5105081;28;19936;-59
2021/08/05 11:59:32;;;;;;;;;;;;;;;23.95;48.34;101014.19;5103576;28;19928;-59
2021/08/05 12:02:08;;;;;;;;;;;;;;;23.85;48.66;101018.59;5103493;28;20364;-59
2021/08/05 12:04:37;;;;;;;;;;;;;;;23.78;48.67;101010.09;5109359;28;20028;-60
2021/08/05 12:07:24;;;;;;;;;;;;;;;23.90;48.78;100999.34;5105069;28;19928;-59
2021/08/05 12:09:53;;;;;;;;;;;;;;;24.17;47.84;100997.09;5103662;28;19957;-60
2021/08/05 12:12:25;;;;;;;;;;;;;;;24.30;47.42;101002.38;5105356;28;19970;-59
2021/08/05 12:14:53;;;;;;;;;;;;;;;24.12;48.06;100993.91;5105775;28;19939;-59
2021/08/05 12:17:31;;;;;;;;;;;;;;;24.03;48.67;100989.25;5101474;28;19942;-59
2021/08/05 12:19:59;;;;;;;;;;;;;;;24.28;47.72;100990.84;5101094;28;19932;-59
2021/08/05 12:22:31;;;;;;;;;;;;;;;24.15;47.94;100987.41;5103055;28;19928;-60
2021/08/05 12:25:02;;;;;;;;;;;;;;;24.02;48.63;100993.81;5098997;28;19960;-59
2021/08/05 12:27:32;;;;;;;;;;;;;;;23.98;48.80;101000.44;5104341;28;19956;-59
2021/08/05 12:30:02;;;;;;;;;;;;;;;23.95;48.82;100997.97;5100003;28;20380;-59
2021/08/05 12:32:31;;;;;;;;;;;;;;;23.94;48.97;100998.09;5104105;28;20397;-59
2021/08/05 12:34:59;;;;;;;;;;;;;;;23.94;49.00;100993.56;5099355;28;19932;-59
2021/08/05 12:37:28;;;;;;;;;;;;;;;23.95;49.13;100992.56;5106368;28;19927;-59
2021/08/05 12:40:07;;;;;;;;;;;;;;;23.96;49.14;100994.28;5105595;28;19940;-59
2021/08/05 12:42:38;;;;;;;;;;;;;;;23.97;49.18;100990.63;5101970;28;19967;-59
2021/08/05 12:45:06;;;;;;;;;;;;;;;23.98;48.78;100986.06;5108857;28;19950;-59
2021/08/05 12:47:34;;;;;;;;;;;;;;;23.98;49.09;100995.03;5105711;28;19963;-59